Pagrindinis puslapis
METAR-TAF:

METAR-TAF

Oro uostai :

Damamas, Saudo Arabija

platuma: 26-28N, ilguma: 049-47E, Aukštis: 22 m

Dabartinis oras

Ataskaita buvo paskelbta 33 minutes, ne 07:00 UTC
Vėjas 6 kt iš Vakarų/Pietvakarių
Temperatūra 29°C
Drėgmė 62%
Slėgis 1016 hPa
Matomumas: 8000 m

METAR: OEDF 260700Z 24006KT 8000 NSC 29/21 Q1016 NOSIG

Laikas: 10:33 (07:33 UTC)

Prognozė

Ataskaita buvo paskelbta 5 valandos ir 18 minutes, ne 02:15 UTC
Prognozė galioja nuo 26 metu 06 UTC su 27 metu 12 UTC
Vėjas 5 kt iš Vakarų/Pietvakarių
Matomumas: 8000 m
Tikimybė 30% :
Laikinai
nuo 26 metu 06 UTC su 26 metu 09 UTC
Matomumas: 5000 m
migla
Tapsmas
nuo 26 metu 09 UTC su 26 metu 11 UTC
Vėjas 10 kt iš Šiaurės Rytų

TAF: OEDF 260215Z 2606/2712 25005KT 8000 NSC PROB30 TEMPO 2606/2609 5000 HZ BECMG 2609/2611 05010KT

Orai ataskaitas ir orų prognozės (METAR, TAF).

turimą stotys yra geltonos ir raudonos taškus žemėlapyje.

Perkelti pele per norėdami pamatyti stoties vardą.

Tada spustelėkite, norėdami matyti oro stebėjimo ir prognozės.

Norėdami pakeisti žemėlapį: spustelėkite ant žalios mygtukų su juodo kryžiaus žemyn,; žalią mygtuką su brūkšneliu, jei norite nutolinti; arba žalių rodyklių gretimoms žemėlapius.


METAR-TAF: